LEPA/PMI METAR and TAF weather

Enter ICAO airport designator
Station Type Date Time Source
LEPA METAR 2020/01/21 09:30 UTC NOAA

LEPA 210930Z 11014G24KT 070V160 9000 -RA FEW020 SCT048 15/12 Q1017 NOSIG


Station Type Date Time Source
LEPA Decoded METAR 2020/01/21 09:30 UTC NOAA

Palma De Mallorca / Son San Juan, Spain (LEPA) 39-33N 002-44E 8M
Jan 21, 2020 - 04:30 AM EST / 2020.01.21 0930 UTC
Wind: from the ESE (110 degrees) at 16 MPH (14 KT) gusting to 28 MPH (24 KT) (direction variable):0
Visibility: 5 mile(s):0
Sky conditions: partly cloudy
Weather: light rain
Temperature: 59 F (15 C)
Dew Point: 53 F (12 C)
Relative Humidity: 82%
Pressure (altimeter): 30.03 in. Hg (1017 hPa)
ob: LEPA 210930Z 11014G24KT 070V160 9000 -RA FEW020 SCT048 15/12 Q1017 NOSIG
cycle: 9

Station Type Date Time Source
LEPA TAF 2020/01/21 06:27 UTC NOAA

TAF LEPA 210500Z 2106/2206 08015G25KT 9999 SCT015 TX15/2113Z TN06/2106Z PROB40
TEMPO 2106/2115 4000 SHRA BKN014 FEW020CB
BECMG 2116/2118 07010KT

Example: see airport list